San Jose, Costa Rica
Current Conditions -  °F | °C
As of 3:00 PM on Sunday 23 Nov 2014 (Local Time) from MROC Reporting Station
Scattered Clouds Scattered Clouds  
Wind Chill: 77°   Ceiling: Unl
Heat Index: 79°   Visibility: 6mi
Dew Point: 68°   Wind: 12mph
Humidity: 74%   Direction: 230°SW
Pressure: 29.89"   Gusts: NA
Location:  10°N, 84.22°W
Report Text: MROC 232100Z 23010KT 9999 FEW020TCU SCT035 25/20 A2989 NOSIG
Loading
Personal Weather Stations






























Interactive Weather Map New forecast layout! Learn more

10-Day Weather Forecast

Advertisements
Track Severe Weather on mobile